Hollis, Illinois
Current Conditions -  °F | °C
As of 12:54 PM on Friday 21 Nov 2014 (Local Time) from KPIA Reporting Station
Clear Clear  
Wind Chill: -3°   Ceiling: Unl
Heat Index:   Visibility: 10mi
Dew Point: -14°   Wind: 10mph
Humidity: 30%   Direction: 150°SSE
Pressure: 30.37"   Gusts: NA
Location:  40.6465°N, 89.6859°W
Report Text: KPIA 211854Z 15009KT 10SM CLR 02/M14 A3037 RMK AO2 SLP294 T00171144
Loading
Personal Weather Stations






























Interactive Weather Map New forecast layout! Learn more

10-Day Weather Forecast

Advertisements
Track Severe Weather on mobile